Nearby METAR Reports

 

KHQM - Hoquiam,WA, USA
Updated: 01/17/2020 3:53am
Few Clouds
Few Clouds
 Wind from E
Wind: E 5 mph , 7 km/h
Temperature: 32°F , 0°C
Wind Chill: 27°F , -3°C
Dew Point: 30°F , -1°C
Humidity: 93%
Barometer: 30.00 inHg , 1015.9 hPa
Clouds: Few Clouds
Visibility: 10 miles , 16 km
Cloud details: Few Clouds 12000 ft
2020/01/17 11:53 KHQM 171153Z AUTO 09004KT 10SM FEW120 00/M01 A3000 RMK AO2 SLP163 70003 I6000 T00001006 10011 21006 51024